createdAt,value
2022-09-15T00:01:05.485Z,99880.69
2022-09-15T00:03:32.085Z,99865.31
2022-09-15T00:05:58.665Z,99865.03
2022-09-15T00:08:26.023Z,99849.66
2022-09-15T00:10:55.918Z,99858.28
2022-09-15T00:13:23.379Z,99858.06
2022-09-15T00:15:50.135Z,99849.97
2022-09-15T00:18:16.918Z,99851.81
2022-09-15T00:20:45.379Z,99853.13
2022-09-15T00:23:14.353Z,99863.09
2022-09-15T00:25:43.321Z,99867.28
2022-09-15T00:28:10.179Z,99872.81
2022-09-15T00:30:48.890Z,99874.13
2022-09-15T00:33:16.640Z,99876.78
2022-09-15T00:35:45.099Z,99873.66
2022-09-15T00:38:13.650Z,99879.41
2022-09-15T00:41:01.179Z,99871.59
2022-09-15T00:43:55.992Z,99879.44
2022-09-15T00:46:30.063Z,99877.19
2022-09-15T00:49:12.541Z,99875.09
2022-09-15T00:51:49.164Z,99871.19
2022-09-15T00:54:41.562Z,99876.16
2022-09-15T00:57:15.942Z,99880.59
2022-09-15T00:59:43.543Z,99872.53
2022-09-15T01:02:20.975Z,99870.19
2022-09-15T01:04:48.864Z,99872.25
2022-09-15T01:07:19.084Z,99860.00
2022-09-15T01:09:52.590Z,99867.03
2022-09-15T01:12:20.871Z,99867.03
2022-09-15T01:14:47.502Z,99872.03
2022-09-15T01:17:32.523Z,99879.66
2022-09-15T01:20:20.515Z,99872.56
2022-09-15T01:23:13.460Z,99877.31
2022-09-15T01:26:04.482Z,99882.53
2022-09-15T01:28:52.621Z,99875.97
2022-09-15T01:31:27.483Z,99887.25
2022-09-15T01:34:00.755Z,99888.81
2022-09-15T01:36:50.739Z,99878.09
2022-09-15T01:39:23.452Z,99880.97
2022-09-15T01:42:02.532Z,99873.91
2022-09-15T01:44:49.794Z,99868.16
2022-09-15T01:47:19.914Z,99877.00
2022-09-15T01:50:10.341Z,99869.69
2022-09-15T01:52:40.964Z,99874.38
2022-09-15T01:55:15.944Z,99874.38
2022-09-15T01:57:42.898Z,99870.19
2022-09-15T02:00:10.068Z,99873.06
2022-09-15T02:02:45.943Z,99877.25
2022-09-15T02:05:30.297Z,99881.69
2022-09-15T02:08:10.667Z,99877.47
2022-09-15T02:10:44.857Z,99887.66
2022-09-15T02:13:17.059Z,99897.91
2022-09-15T02:15:51.711Z,99887.44
2022-09-15T02:18:30.484Z,99881.69
2022-09-15T02:21:17.810Z,99884.56
2022-09-15T02:23:53.332Z,99894.72
2022-09-15T02:26:24.490Z,99881.69
2022-09-15T02:28:54.221Z,99901.75
2022-09-15T02:31:24.912Z,99896.78
2022-09-15T02:33:57.660Z,99895.44
2022-09-15T02:36:26.378Z,99888.38
2022-09-15T02:38:59.984Z,99898.59
2022-09-15T02:41:27.272Z,99895.72
2022-09-15T02:43:53.816Z,99897.25
2022-09-15T02:46:21.950Z,99900.13
2022-09-15T02:48:48.548Z,99894.59
2022-09-15T02:51:17.291Z,99883.88
2022-09-15T02:53:44.616Z,99870.81
2022-09-15T02:56:11.303Z,99880.47
2022-09-15T02:58:37.941Z,99871.84
2022-09-15T03:01:06.768Z,99873.38
2022-09-15T03:03:34.545Z,99870.50
2022-09-15T03:06:16.647Z,99870.78
2022-09-15T03:08:47.098Z,99860.56
2022-09-15T03:11:13.947Z,99849.84
2022-09-15T03:13:40.475Z,99858.22
2022-09-15T03:16:11.587Z,99849.84
2022-09-15T03:18:38.651Z,99869.72
2022-09-15T03:21:06.901Z,99874.13
2022-09-15T03:23:34.029Z,99868.91
2022-09-15T03:26:01.409Z,99872.59
2022-09-15T03:28:28.751Z,99878.56
2022-09-15T03:30:55.729Z,99878.56
2022-09-15T03:33:23.400Z,99878.81
2022-09-15T03:35:51.966Z,99867.28
2022-09-15T03:38:19.006Z,99873.06
2022-09-15T03:41:02.979Z,99876.47
2022-09-15T03:43:31.225Z,99873.81
2022-09-15T03:45:59.572Z,99879.56
2022-09-15T03:48:28.583Z,99875.16
2022-09-15T03:50:55.275Z,99881.69
2022-09-15T03:53:22.228Z,99880.38
2022-09-15T03:55:49.857Z,99880.38
2022-09-15T03:58:17.741Z,99877.50
2022-09-15T04:00:45.839Z,99884.56
2022-09-15T04:03:12.998Z,99872.50
2022-09-15T04:05:39.888Z,99876.94
2022-09-15T04:08:06.809Z,99880.38
2022-09-15T04:10:33.463Z,99878.25
2022-09-15T04:12:59.974Z,99891.34
2022-09-15T04:15:26.566Z,99889.22
2022-09-15T04:17:53.540Z,99887.13
2022-09-15T04:20:20.185Z,99873.53
2022-09-15T04:22:46.871Z,99883.69
2022-09-15T04:25:13.375Z,99881.38
2022-09-15T04:27:39.927Z,99880.06
2022-09-15T04:30:07.587Z,99870.41
2022-09-15T04:32:35.690Z,99871.97
2022-09-15T04:35:04.051Z,99875.88
2022-09-15T04:37:31.435Z,99871.44
2022-09-15T04:39:58.085Z,99872.19
2022-09-15T04:42:24.711Z,99866.97
2022-09-15T04:44:51.498Z,99870.13
2022-09-15T04:47:18.272Z,99864.38
2022-09-15T04:49:45.571Z,99869.31
2022-09-15T04:52:12.145Z,99877.94
2022-09-15T04:54:38.683Z,99880.81
2022-09-15T04:57:05.619Z,99882.41
2022-09-15T04:59:32.307Z,99878.50
2022-09-15T05:01:58.883Z,99875.06
2022-09-15T05:04:25.761Z,99873.53
2022-09-15T05:06:52.300Z,99869.88
2022-09-15T05:09:18.799Z,99873.53
2022-09-15T05:11:45.387Z,99873.53
2022-09-15T05:14:12.008Z,99875.06
2022-09-15T05:16:40.054Z,99885.03
2022-09-15T05:19:06.734Z,99882.72
2022-09-15T05:21:33.876Z,99877.94
2022-09-15T05:24:00.537Z,99874.84
2022-09-15T05:26:29.293Z,99875.06
2022-09-15T05:28:57.058Z,99869.88
2022-09-15T05:31:29.200Z,99867.78
2022-09-15T05:33:56.062Z,99872.19
2022-09-15T05:36:25.186Z,99871.44
2022-09-15T05:38:59.171Z,99867.78
2022-09-15T05:41:27.140Z,99870.13
2022-09-15T05:43:56.853Z,99867.25
2022-09-15T05:46:26.132Z,99873.53
2022-09-15T05:48:56.662Z,99866.44
2022-09-15T05:51:23.890Z,99865.13
2022-09-15T05:53:51.007Z,99873.75
2022-09-15T05:56:18.805Z,99876.88
2022-09-15T05:58:47.619Z,99875.56
2022-09-15T06:01:20.632Z,99874.00
2022-09-15T06:03:48.087Z,99875.56
2022-09-15T06:06:14.698Z,99878.66
2022-09-15T06:08:56.890Z,99877.09
2022-09-15T06:11:34.805Z,99881.53
2022-09-15T06:14:03.280Z,99873.69
2022-09-15T06:16:33.268Z,99878.88
2022-09-15T06:19:01.218Z,99871.81
2022-09-15T06:21:29.205Z,99870.25
2022-09-15T06:23:58.107Z,99872.06
2022-09-15T06:26:25.668Z,99869.97
2022-09-15T06:28:54.961Z,99872.31
2022-09-15T06:31:22.590Z,99868.09
2022-09-15T06:33:51.818Z,99866.25
2022-09-15T06:36:20.132Z,99875.63
2022-09-15T06:38:47.396Z,99881.38
2022-09-15T06:41:14.439Z,99879.06
2022-09-15T06:43:42.199Z,99884.50
2022-09-15T06:46:14.599Z,99883.97
2022-09-15T06:48:43.475Z,99885.28
2022-09-15T06:51:14.284Z,99884.75
2022-09-15T06:53:41.681Z,99888.63
2022-09-15T06:56:11.127Z,99882.88
2022-09-15T06:58:40.168Z,99892.03
2022-09-15T07:01:12.281Z,99881.56
2022-09-15T07:03:40.960Z,99896.72
2022-09-15T07:06:08.436Z,99895.94
2022-09-15T07:08:35.040Z,99888.34
2022-09-15T07:11:02.018Z,99898.81
2022-09-15T07:13:28.645Z,99890.97
2022-09-15T07:16:00.757Z,99896.97
2022-09-15T07:18:27.856Z,99912.13
2022-09-15T07:20:59.873Z,99910.78
2022-09-15T07:23:27.322Z,99917.56
2022-09-15T07:26:04.901Z,99907.91
2022-09-15T07:28:31.500Z,99916.50
2022-09-15T07:30:57.995Z,99909.16
2022-09-15T07:33:24.591Z,99917.97
2022-09-15T07:35:51.302Z,99915.31
2022-09-15T07:38:17.961Z,99917.91
2022-09-15T07:40:46.040Z,99917.09
2022-09-15T07:43:13.216Z,99912.91
2022-09-15T07:45:39.835Z,99919.94
2022-09-15T07:48:06.468Z,99910.75
2022-09-15T07:50:33.197Z,99913.84
2022-09-15T07:52:59.797Z,99915.97
2022-09-15T07:55:27.039Z,99925.03
2022-09-15T07:57:58.564Z,99924.81
2022-09-15T08:00:25.757Z,99935.47
2022-09-15T08:02:52.564Z,99939.16
2022-09-15T08:05:19.650Z,99932.84
2022-09-15T08:07:46.323Z,99935.72
2022-09-15T08:10:12.898Z,99931.72
2022-09-15T08:12:40.764Z,99933.28
2022-09-15T08:15:07.694Z,99937.97
2022-09-15T08:17:34.560Z,99935.09
2022-09-15T08:20:01.678Z,99939.22
2022-09-15T08:22:28.237Z,99947.84
2022-09-15T08:24:54.851Z,99946.84
2022-09-15T08:27:21.382Z,99972.38
2022-09-15T08:29:48.170Z,99963.88
2022-09-15T08:32:14.941Z,99966.44
2022-09-15T08:34:41.589Z,99987.31
2022-09-15T08:37:08.148Z,99973.94
2022-09-15T08:39:34.739Z,99955.56
2022-09-15T08:42:02.649Z,99964.22
2022-09-15T08:44:38.414Z,99964.66
2022-09-15T08:47:13.457Z,99967.53
2022-09-15T08:50:13.334Z,99974.88
2022-09-15T08:52:50.581Z,99974.31
2022-09-15T08:55:48.215Z,99974.06
2022-09-15T08:58:31.193Z,99965.13
2022-09-15T09:01:22.723Z,99965.34
2022-09-15T09:04:08.140Z,99964.28
2022-09-15T09:06:44.518Z,99968.75
2022-09-15T09:09:33.185Z,99978.16
2022-09-15T09:12:37.035Z,99973.94
2022-09-15T09:15:31.533Z,99974.72
2022-09-15T09:18:29.359Z,99968.97
2022-09-15T09:21:05.233Z,99969.13
2022-09-15T09:23:33.796Z,99984.50
2022-09-15T09:26:02.145Z,99978.44
2022-09-15T09:28:36.569Z,99975.78
2022-09-15T09:31:07.662Z,99973.91
2022-09-15T09:33:52.230Z,99982.56
2022-09-15T09:36:19.840Z,99973.91
2022-09-15T09:38:48.851Z,99970.16
2022-09-15T09:41:25.448Z,99983.47
2022-09-15T09:43:55.032Z,99964.63
2022-09-15T09:46:22.252Z,99961.97
2022-09-15T09:48:56.483Z,99961.97
2022-09-15T09:51:31.264Z,99977.25
2022-09-15T09:54:05.263Z,99967.94
2022-09-15T09:56:31.826Z,99947.78
2022-09-15T09:58:58.463Z,99945.56
2022-09-15T10:01:26.138Z,99944.47
2022-09-15T10:04:16.855Z,99955.47
2022-09-15T10:06:44.137Z,99950.72
2022-09-15T10:09:17.470Z,99962.78
2022-09-15T10:11:52.164Z,99945.16
2022-09-15T10:14:25.130Z,99949.81
2022-09-15T10:17:13.817Z,99951.16
2022-09-15T10:19:46.423Z,99941.59
2022-09-15T10:22:45.464Z,99949.50
2022-09-15T10:25:21.037Z,99945.38
2022-09-15T10:28:12.397Z,99948.84
2022-09-15T10:30:40.422Z,99942.75
2022-09-15T10:33:22.826Z,99930.75
2022-09-15T10:35:49.519Z,99933.00
2022-09-15T10:38:26.453Z,99929.00
2022-09-15T10:41:00.918Z,99939.75
2022-09-15T10:43:30.461Z,99932.31
2022-09-15T10:46:18.655Z,99927.31
2022-09-15T10:49:13.314Z,99926.47
2022-09-15T10:51:59.950Z,99924.56
2022-09-15T10:54:47.961Z,99925.66
2022-09-15T10:57:32.964Z,99939.53
2022-09-15T11:00:10.102Z,99943.44
2022-09-15T11:03:03.992Z,99959.66
2022-09-15T11:05:33.582Z,99981.63
2022-09-15T11:08:48.347Z,99982.94
2022-09-15T11:11:17.656Z,99980.38
2022-09-15T11:13:59.354Z,99979.84
2022-09-15T11:16:54.233Z,99980.06
2022-09-15T11:19:42.362Z,99976.16
2022-09-15T11:22:20.203Z,99986.59
2022-09-15T11:24:53.252Z,99984.25
2022-09-15T11:27:31.462Z,99972.97
2022-09-15T11:30:03.980Z,99984.94
2022-09-15T11:32:58.097Z,99984.72
2022-09-15T11:35:59.319Z,99979.16
2022-09-15T11:38:47.960Z,99975.19
2022-09-15T11:41:28.456Z,99980.19
2022-09-15T11:44:18.270Z,99986.72
2022-09-15T11:47:22.352Z,99990.66
2022-09-15T11:49:55.852Z,99995.31
2022-09-15T11:52:59.907Z,99975.66
2022-09-15T11:55:42.036Z,99976.66
2022-09-15T11:58:22.028Z,99992.09
2022-09-15T12:00:55.755Z,99984.75
2022-09-15T12:03:39.058Z,99983.78
2022-09-15T12:06:34.375Z,99981.88
2022-09-15T12:09:11.947Z,99985.78
2022-09-15T12:11:43.184Z,99983.88
2022-09-15T12:14:16.527Z,99985.22
2022-09-15T12:16:44.588Z,99980.44
2022-09-15T12:19:26.834Z,99978.44
2022-09-15T12:22:01.444Z,99989.63
2022-09-15T12:24:45.860Z,99992.78
2022-09-15T12:27:16.819Z,99995.09
2022-09-15T12:29:51.778Z,100012.72
2022-09-15T12:32:28.881Z,100009.84
2022-09-15T12:35:01.696Z,100013.88
2022-09-15T12:37:49.063Z,99999.44
2022-09-15T12:40:27.681Z,100001.19
2022-09-15T12:42:54.693Z,100006.97
2022-09-15T12:45:36.151Z,100003.84
2022-09-15T12:48:07.454Z,100010.09
2022-09-15T12:50:53.212Z,100009.28
2022-09-15T12:53:25.145Z,100015.06
2022-09-15T12:55:53.003Z,100015.88
2022-09-15T12:58:36.450Z,100010.44
2022-09-15T13:01:18.777Z,100022.75
2022-09-15T13:03:45.672Z,100010.09
2022-09-15T13:06:26.786Z,100019.31
2022-09-15T13:09:02.321Z,100014.31
2022-09-15T13:11:38.113Z,100013.75
2022-09-15T13:14:07.784Z,100012.44
2022-09-15T13:16:40.314Z,100005.84
2022-09-15T13:19:40.923Z,100004.31
2022-09-15T13:22:23.904Z,100003.22
2022-09-15T13:24:57.814Z,100001.66
2022-09-15T13:27:35.707Z,99994.31
2022-09-15T13:30:20.550Z,99990.88
2022-09-15T13:33:05.359Z,99991.22
2022-09-15T13:35:51.816Z,99991.88
2022-09-15T13:38:45.978Z,99992.31
2022-09-15T13:41:42.285Z,99982.13
2022-09-15T13:44:27.642Z,99979.78
2022-09-15T13:47:23.370Z,99981.44
2022-09-15T13:49:57.749Z,99968.53
2022-09-15T13:52:31.471Z,99973.00
2022-09-15T13:55:14.493Z,99963.31
2022-09-15T14:00:35.230Z,99977.22
2022-09-15T14:03:09.339Z,99974.88
2022-09-15T14:05:36.621Z,99976.28
2022-09-15T14:08:07.704Z,99983.84
2022-09-15T14:10:45.247Z,99977.09
2022-09-15T14:13:16.461Z,99983.63
2022-09-15T14:15:56.747Z,99982.56
2022-09-15T14:18:23.402Z,100005.09
2022-09-15T14:21:05.424Z,99988.63
2022-09-15T14:23:32.683Z,99994.63
2022-09-15T14:26:01.496Z,99990.16
2022-09-15T14:28:33.983Z,99993.59
2022-09-15T14:31:02.430Z,99995.16
2022-09-15T14:33:37.856Z,99992.84
2022-09-15T14:36:22.674Z,99998.94
2022-09-15T14:39:17.850Z,99997.38
2022-09-15T14:41:45.560Z,99996.06
2022-09-15T14:47:28.239Z,99992.50
2022-09-15T14:50:13.790Z,99998.03
2022-09-15T14:52:42.078Z,99988.28
2022-09-15T14:55:36.192Z,99988.38
2022-09-15T14:58:21.699Z,99985.41
2022-09-15T15:01:00.745Z,99993.47
2022-09-15T15:03:52.246Z,99995.94
2022-09-15T15:07:05.310Z,99996.69
2022-09-15T15:09:44.044Z,99999.81
2022-09-15T15:12:27.070Z,99996.16
2022-09-15T15:14:55.089Z,99990.25
2022-09-15T15:17:44.114Z,99983.06
2022-09-15T15:20:10.614Z,99993.81
2022-09-15T15:22:39.029Z,99993.81
2022-09-15T15:25:30.010Z,99982.94
2022-09-15T15:28:01.087Z,99978.41
2022-09-15T15:30:30.780Z,99984.94
2022-09-15T15:32:57.530Z,99980.72
2022-09-15T15:35:24.785Z,99978.06
2022-09-15T15:38:16.381Z,99985.28
2022-09-15T15:40:44.072Z,99994.38
2022-09-15T15:43:22.509Z,99999.16
2022-09-15T15:45:58.033Z,99996.47
2022-09-15T15:48:26.580Z,99984.59
2022-09-15T15:50:53.490Z,99992.03
2022-09-15T15:53:20.139Z,99998.81
2022-09-15T15:55:47.092Z,99989.59
2022-09-15T15:58:14.767Z,99983.84
2022-09-15T16:00:52.631Z,99978.84
2022-09-15T16:03:20.893Z,99992.94
2022-09-15T16:05:51.803Z,99997.38
2022-09-15T16:08:26.675Z,99996.59
2022-09-15T16:10:54.997Z,100003.16
2022-09-15T16:13:23.097Z,100044.75
2022-09-15T16:15:50.234Z,100027.72
2022-09-15T16:18:16.804Z,100019.97
2022-09-15T16:20:43.676Z,100019.75
2022-09-15T16:23:15.832Z,100022.19
2022-09-15T16:25:52.667Z,100023.72
2022-09-15T16:28:20.013Z,100025.72
2022-09-15T16:30:47.321Z,100019.47
2022-09-15T16:33:17.688Z,100013.06
2022-09-15T16:36:08.181Z,100013.06
2022-09-15T16:38:35.968Z,100002.84
2022-09-15T16:41:04.456Z,99995.97
2022-09-15T16:43:31.101Z,99999.63
2022-09-15T16:45:57.677Z,99999.06
2022-09-15T16:48:24.626Z,100004.84
2022-09-15T16:51:09.524Z,100012.19
2022-09-15T16:53:39.489Z,100009.84
2022-09-15T16:56:07.443Z,100003.28
2022-09-15T16:58:34.330Z,100004.06
2022-09-15T17:01:01.209Z,100002.50
2022-09-15T17:03:27.814Z,100001.75
2022-09-15T17:05:57.471Z,100014.03
2022-09-15T17:08:29.658Z,100012.72
2022-09-15T17:10:58.109Z,100006.72
2022-09-15T17:13:29.506Z,99998.63
2022-09-15T17:15:58.275Z,100004.41
2022-09-15T17:18:25.042Z,100008.59
2022-09-15T17:20:51.926Z,100007.03
2022-09-15T17:23:24.644Z,100006.28
2022-09-15T17:25:53.026Z,100006.06
2022-09-15T17:28:22.475Z,99997.69
2022-09-15T17:30:50.864Z,100006.13
2022-09-15T17:33:19.087Z,100008.25
2022-09-15T17:35:46.418Z,100013.00
2022-09-15T17:38:13.301Z,100010.44
2022-09-15T17:40:40.303Z,100018.31
2022-09-15T17:43:12.592Z,100013.63
2022-09-15T17:45:39.382Z,100017.06
2022-09-15T17:48:06.249Z,100017.63
2022-09-15T17:50:34.229Z,100024.69
2022-09-15T17:53:00.887Z,100010.06
2022-09-15T17:55:34.607Z,100012.72
2022-09-15T17:58:02.727Z,100019.25
2022-09-15T18:00:33.344Z,100014.59
2022-09-15T18:03:03.389Z,100024.53
2022-09-15T18:05:33.641Z,100022.22
2022-09-15T18:08:03.241Z,100020.66
2022-09-15T18:10:31.911Z,100025.66
2022-09-15T18:12:58.946Z,100021.75
2022-09-15T18:15:29.312Z,100018.66
2022-09-15T18:18:03.690Z,100022.09
2022-09-15T18:20:31.725Z,100021.16
2022-09-15T18:22:58.982Z,100018.81
2022-09-15T18:25:34.535Z,100023.50
2022-09-15T18:28:01.977Z,100029.25
2022-09-15T18:30:32.274Z,100035.03
2022-09-15T18:32:59.078Z,100039.97
2022-09-15T18:35:26.358Z,100033.44
2022-09-15T18:37:58.909Z,100035.56
2022-09-15T18:40:27.526Z,100033.44
2022-09-15T18:42:54.357Z,100025.63
2022-09-15T18:45:20.908Z,100032.16
2022-09-15T18:47:49.139Z,100037.94
2022-09-15T18:50:17.342Z,100035.06
2022-09-15T18:52:44.122Z,100044.47
2022-09-15T18:55:22.435Z,100036.38
2022-09-15T18:57:49.314Z,100040.06
2022-09-15T19:00:19.495Z,100032.94
2022-09-15T19:02:47.155Z,100030.38
2022-09-15T19:05:17.560Z,100032.72
2022-09-15T19:07:45.418Z,100039.78
2022-09-15T19:10:14.520Z,100047.66
2022-09-15T19:12:41.166Z,100042.44
2022-09-15T19:15:11.059Z,100055.53
2022-09-15T19:17:39.448Z,100050.88
2022-09-15T19:20:08.598Z,100033.56
2022-09-15T19:22:36.716Z,100042.22
2022-09-15T19:25:05.827Z,100039.34
2022-09-15T19:27:32.634Z,100035.44
2022-09-15T19:30:00.027Z,100042.28
2022-09-15T19:32:27.023Z,100048.84
2022-09-15T19:34:53.737Z,100060.38
2022-09-15T19:37:22.094Z,100056.69
2022-09-15T19:39:49.372Z,100053.56
2022-09-15T19:42:16.448Z,100056.47
2022-09-15T19:44:43.549Z,100058.31
2022-09-15T19:47:10.545Z,100045.78
2022-09-15T19:49:37.632Z,100056.56
2022-09-15T19:52:06.254Z,100053.19
2022-09-15T19:54:34.337Z,100055.28
2022-09-15T19:57:01.300Z,100064.22
2022-09-15T19:59:31.239Z,100077.06
2022-09-15T20:01:58.487Z,100066.63
2022-09-15T20:04:25.328Z,100072.41
2022-09-15T20:06:51.909Z,100078.69
2022-09-15T20:09:18.842Z,100072.44
2022-09-15T20:11:45.596Z,100073.00
2022-09-15T20:14:12.218Z,100068.56
2022-09-15T20:16:38.910Z,100074.09
2022-09-15T20:19:06.092Z,100074.38
2022-09-15T20:21:51.452Z,100078.06
2022-09-15T20:24:19.804Z,100080.44
2022-09-15T20:26:47.755Z,100089.63
2022-09-15T20:29:14.371Z,100094.63
2022-09-15T20:31:41.752Z,100092.28
2022-09-15T20:34:08.452Z,100092.31
2022-09-15T20:36:36.825Z,100092.31
2022-09-15T20:39:06.467Z,100100.72
2022-09-15T20:41:33.133Z,100098.63
2022-09-15T20:44:00.305Z,100102.56
2022-09-15T20:46:29.142Z,100122.50
2022-09-15T20:48:55.715Z,100110.78
2022-09-15T20:51:25.559Z,100114.38
2022-09-15T20:53:54.915Z,100104.75
2022-09-15T20:56:25.348Z,100101.06
2022-09-15T20:58:54.152Z,100096.88
2022-09-15T21:01:23.617Z,100101.06
2022-09-15T21:03:50.805Z,100094.53
2022-09-15T21:06:20.407Z,100089.31
2022-09-15T21:08:48.708Z,100096.66
2022-09-15T21:11:17.140Z,100088.56
2022-09-15T21:13:44.002Z,100097.97
2022-09-15T21:16:16.053Z,100102.16
2022-09-15T21:18:44.598Z,100092.75
2022-09-15T21:21:15.248Z,100099.03
2022-09-15T21:23:47.472Z,100098.81
2022-09-15T21:26:25.472Z,100099.88
2022-09-15T21:28:53.440Z,100095.19
2022-09-15T21:31:31.999Z,100095.19
2022-09-15T21:33:59.397Z,100093.63
2022-09-15T21:36:30.665Z,100099.69
2022-09-15T21:38:59.116Z,100092.63
2022-09-15T21:41:29.892Z,100095.22
2022-09-15T21:43:58.305Z,100106.50
2022-09-15T21:46:27.567Z,100096.88
2022-09-15T21:48:55.974Z,100106.81
2022-09-15T21:51:24.918Z,100103.19
2022-09-15T21:53:53.793Z,100108.19
2022-09-15T21:56:21.392Z,100108.72
2022-09-15T21:58:48.586Z,100117.34
2022-09-15T22:01:23.538Z,100119.97
2022-09-15T22:04:02.180Z,100113.94
2022-09-15T22:06:33.257Z,100107.72
2022-09-15T22:09:01.161Z,100128.63
2022-09-15T22:11:28.161Z,100118.94
2022-09-15T22:13:55.656Z,100120.03
2022-09-15T22:16:24.398Z,100124.22
2022-09-15T22:18:52.088Z,100120.03
2022-09-15T22:21:25.307Z,100119.78
2022-09-15T22:23:54.995Z,100120.84
2022-09-15T22:26:25.424Z,100119.84
2022-09-15T22:28:52.547Z,100131.34
2022-09-15T22:31:20.941Z,100130.53
2022-09-15T22:33:48.186Z,100126.66
2022-09-15T22:36:17.444Z,100123.53
2022-09-15T22:38:44.495Z,100121.19
2022-09-15T22:41:13.827Z,100118.31
2022-09-15T22:43:42.407Z,100118.31
2022-09-15T22:46:09.246Z,100115.97
2022-09-15T22:48:39.762Z,100113.63
2022-09-15T22:51:10.120Z,100112.84
2022-09-15T22:53:36.601Z,100112.59
2022-09-15T22:56:06.682Z,100119.13
2022-09-15T22:58:34.485Z,100119.91
2022-09-15T23:01:05.237Z,100107.91
2022-09-15T23:03:32.172Z,100113.13
2022-09-15T23:05:59.963Z,100109.47
2022-09-15T23:08:26.900Z,100107.13
2022-09-15T23:10:53.435Z,100115.00
2022-09-15T23:13:19.975Z,100111.31
2022-09-15T23:15:46.541Z,100117.06
2022-09-15T23:18:13.028Z,100112.66
2022-09-15T23:20:40.348Z,100108.19
2022-09-15T23:23:06.871Z,100099.56
2022-09-15T23:25:34.079Z,100092.78
2022-09-15T23:28:00.889Z,100102.97
2022-09-15T23:30:27.548Z,100091.25
2022-09-15T23:32:54.107Z,100094.91
2022-09-15T23:35:20.611Z,100094.38
2022-09-15T23:37:47.097Z,100106.91
2022-09-15T23:40:13.774Z,100104.59
2022-09-15T23:42:40.370Z,100106.41
2022-09-15T23:45:07.218Z,100108.50
2022-09-15T23:47:34.978Z,100098.09
2022-09-15T23:50:01.598Z,100096.00
2022-09-15T23:52:28.144Z,100096.53
2022-09-15T23:54:54.642Z,100100.47
2022-09-15T23:57:21.188Z,100107.00
2022-09-15T23:59:47.720Z,100098.13
